createdAt,value
2016-10-28T00:00:29.170Z,78.12
2016-10-28T00:01:29.194Z,78.12
2016-10-28T00:02:29.209Z,77.83
2016-10-28T00:03:29.227Z,77.83
2016-10-28T00:04:29.239Z,78.12
2016-10-28T00:05:29.260Z,78.22
2016-10-28T00:06:29.272Z,78.22
2016-10-28T00:07:29.288Z,78.03
2016-10-28T00:08:29.340Z,78.12
2016-10-28T00:09:29.322Z,78.12
2016-10-28T00:10:29.333Z,78.12
2016-10-28T00:11:29.491Z,78.22
2016-10-28T00:12:29.488Z,77.74
2016-10-28T00:13:29.501Z,78.22
2016-10-28T00:14:29.519Z,78.31
2016-10-28T00:15:29.507Z,78.12
2016-10-28T00:16:29.525Z,78.5
2016-10-28T00:17:29.866Z,78.22
2016-10-28T00:18:29.564Z,78.12
2016-10-28T00:19:29.569Z,78.12
2016-10-28T00:20:29.641Z,78.22
2016-10-28T00:21:29.649Z,78.22
2016-10-28T00:22:29.655Z,78.31
2016-10-28T00:23:29.663Z,78.5
2016-10-28T00:24:29.665Z,78.31
2016-10-28T00:25:29.669Z,78.59
2016-10-28T00:26:29.812Z,78.5
2016-10-28T00:27:29.820Z,78.5
2016-10-28T00:28:29.832Z,78.31
2016-10-28T00:29:29.833Z,78.5
2016-10-28T00:30:29.841Z,78.5
2016-10-28T00:31:29.852Z,78.22
2016-10-28T00:32:29.800Z,78.31
2016-10-28T00:33:29.800Z,78.5
2016-10-28T00:34:29.769Z,78.41
2016-10-28T00:35:29.788Z,78.59
2016-10-28T00:36:29.808Z,78.69
2016-10-28T00:37:29.784Z,78.5
2016-10-28T00:38:29.797Z,78.75
2016-10-28T00:39:29.815Z,78.59
2016-10-28T00:40:29.831Z,78.5
2016-10-28T00:41:29.849Z,78.27
2016-10-28T00:42:29.864Z,78.59
2016-10-28T00:43:29.881Z,78.46
2016-10-28T00:44:29.898Z,78.5
2016-10-28T00:45:29.913Z,78.31
2016-10-28T00:46:29.931Z,78.5
2016-10-28T00:47:29.945Z,78.37
2016-10-28T00:48:29.970Z,78.5
2016-10-28T00:49:30.357Z,78.22
2016-10-28T00:50:29.998Z,78.37
2016-10-28T00:51:30.016Z,78.41
2016-10-28T00:52:30.034Z,78.41
2016-10-28T00:53:30.050Z,78.37
2016-10-28T00:54:30.063Z,78.41
2016-10-28T00:55:30.084Z,78.37
2016-10-28T00:56:30.104Z,78.41
2016-10-28T00:57:30.116Z,78.31
2016-10-28T00:58:30.133Z,78.59
2016-10-28T00:59:30.149Z,78.22
2016-10-28T01:00:30.164Z,78.46
2016-10-28T01:01:30.183Z,78.46
2016-10-28T01:02:30.199Z,78.5
2016-10-28T01:03:30.213Z,79.17
2016-10-28T01:04:30.230Z,78.37
2016-10-28T01:05:30.246Z,78.37
2016-10-28T01:06:30.265Z,78.17
2016-10-28T01:07:30.281Z,78.56
2016-10-28T01:08:30.296Z,79.27
2016-10-28T01:09:30.312Z,78.5
2016-10-28T01:10:30.330Z,78.98
2016-10-28T01:11:30.349Z,78.12
2016-10-28T01:12:30.364Z,79.07
2016-10-28T01:13:30.378Z,78.56
2016-10-28T01:14:30.397Z,78.75
2016-10-28T01:15:30.416Z,78.75
2016-10-28T01:16:30.426Z,78.94
2016-10-28T01:17:30.445Z,79.13
2016-10-28T01:18:30.498Z,78.75
2016-10-28T01:19:30.481Z,78.69
2016-10-28T01:20:30.506Z,78.75
2016-10-28T01:21:30.512Z,78.69
2016-10-28T01:22:30.530Z,78.75
2016-10-28T01:23:30.544Z,78.59
2016-10-28T01:24:30.567Z,79.07
2016-10-28T01:25:30.580Z,78.37
2016-10-28T01:26:30.596Z,78.41
2016-10-28T01:27:30.614Z,78.75
2016-10-28T01:28:30.626Z,78.46
2016-10-28T01:29:30.647Z,79.07
2016-10-28T01:30:30.665Z,78.56
2016-10-28T01:31:30.679Z,78.94
2016-10-28T01:32:30.695Z,79.13
2016-10-28T01:33:30.711Z,78.56
2016-10-28T01:34:30.728Z,78.85
2016-10-28T01:35:30.744Z,78.69
2016-10-28T01:36:30.761Z,78.65
2016-10-28T01:37:30.780Z,79.03
2016-10-28T01:38:30.794Z,78.78
2016-10-28T01:39:30.811Z,78.56
2016-10-28T01:40:30.828Z,78.75
2016-10-28T01:41:30.845Z,79.13
2016-10-28T01:42:30.862Z,79.22
2016-10-28T01:43:30.876Z,78.46
2016-10-28T01:44:31.328Z,78.85
2016-10-28T01:45:30.911Z,79.07
2016-10-28T01:46:30.927Z,79.03
2016-10-28T01:47:30.946Z,78.94
2016-10-28T01:48:30.960Z,79.22
2016-10-28T01:49:30.977Z,78.94
2016-10-28T01:50:30.994Z,79.03
2016-10-28T01:51:31.016Z,78.94
2016-10-28T01:52:31.028Z,78.75
2016-10-28T01:53:31.046Z,79.03
2016-10-28T01:54:31.060Z,79.22
2016-10-28T01:55:31.491Z,79.22
2016-10-28T01:56:31.128Z,79.22
2016-10-28T01:57:31.109Z,79.13
2016-10-28T01:58:31.128Z,79.22
2016-10-28T01:59:31.142Z,79.13
2016-10-28T02:00:31.160Z,79.32
2016-10-28T02:01:31.274Z,79.22
2016-10-28T02:02:31.274Z,79.22
2016-10-28T02:03:31.282Z,79.41
2016-10-28T02:04:31.293Z,78.85
2016-10-28T02:05:31.300Z,79.13
2016-10-28T02:06:31.310Z,78.65
2016-10-28T02:07:31.309Z,78.85
2016-10-28T02:08:31.316Z,78.94
2016-10-28T02:09:31.326Z,79.03
2016-10-28T02:10:31.335Z,79.03
2016-10-28T02:11:31.343Z,79.03
2016-10-28T02:12:31.357Z,79.03
2016-10-28T02:13:31.486Z,79.32
2016-10-28T02:14:31.420Z,79.13
2016-10-28T02:15:31.428Z,79.13
2016-10-28T02:16:31.427Z,79.41
2016-10-28T02:17:31.438Z,78.75
2016-10-28T02:18:31.454Z,79.03
2016-10-28T02:19:31.568Z,79.13
2016-10-28T02:20:31.578Z,79.03
2016-10-28T02:21:31.586Z,79.22
2016-10-28T02:22:31.611Z,79.32
2016-10-28T02:23:31.620Z,78.94
2016-10-28T02:24:31.630Z,78.94
2016-10-28T02:25:31.637Z,78.85
2016-10-28T02:26:31.646Z,78.94
2016-10-28T02:27:31.606Z,78.85
2016-10-28T02:28:31.664Z,79.51
2016-10-28T02:29:31.637Z,79.41
2016-10-28T02:30:31.957Z,78.75
2016-10-28T02:31:31.709Z,79.03
2016-10-28T02:32:31.726Z,79.03
2016-10-28T02:33:31.703Z,79.13
2016-10-28T02:34:31.719Z,79.17
2016-10-28T02:35:31.735Z,79.22
2016-10-28T02:36:31.755Z,79.22
2016-10-28T02:37:31.770Z,79.03
2016-10-28T02:38:31.784Z,78.75
2016-10-28T02:39:31.805Z,79.03
2016-10-28T02:40:31.819Z,79.27
2016-10-28T02:41:31.834Z,79.36
2016-10-28T02:42:31.850Z,78.94
2016-10-28T02:43:31.959Z,79.13
2016-10-28T02:44:31.886Z,78.94
2016-10-28T02:45:31.901Z,78.98
2016-10-28T02:46:31.916Z,79.03
2016-10-28T02:47:31.933Z,79.07
2016-10-28T02:48:31.951Z,79.13
2016-10-28T02:49:31.967Z,79.41
2016-10-28T02:50:31.984Z,78.98
2016-10-28T02:51:32.003Z,79.46
2016-10-28T02:52:32.019Z,79.13
2016-10-28T02:53:32.037Z,79.8
2016-10-28T02:54:32.051Z,79.32
2016-10-28T02:55:32.068Z,79.36
2016-10-28T02:56:32.081Z,79.6
2016-10-28T02:57:32.098Z,79.7
2016-10-28T02:58:32.213Z,79.22
2016-10-28T02:59:32.222Z,79.8
2016-10-28T03:00:32.230Z,79.6
2016-10-28T03:01:32.240Z,79.46
2016-10-28T03:02:32.238Z,79.22
2016-10-28T03:03:32.199Z,79.07
2016-10-28T03:04:32.257Z,79.55
2016-10-28T03:05:32.232Z,79.6
2016-10-28T03:06:32.247Z,79.03
2016-10-28T03:07:32.264Z,79.27
2016-10-28T03:08:32.281Z,79.13
2016-10-28T03:09:32.299Z,79.32
2016-10-28T03:10:32.316Z,79.46
2016-10-28T03:11:32.330Z,79.32
2016-10-28T03:12:32.349Z,79.64
2016-10-28T03:13:32.364Z,79.7
2016-10-28T03:14:32.378Z,78.85
2016-10-28T03:15:32.396Z,79.03
2016-10-28T03:16:32.413Z,78.88
2016-10-28T03:17:32.430Z,79.64
2016-10-28T03:18:32.465Z,79.27
2016-10-28T03:19:32.462Z,79.7
2016-10-28T03:20:32.480Z,79.6
2016-10-28T03:21:32.496Z,79.8
2016-10-28T03:22:32.515Z,79.22
2016-10-28T03:23:32.529Z,79.13
2016-10-28T03:24:32.546Z,79.27
2016-10-28T03:25:32.561Z,79.55
2016-10-28T03:26:32.578Z,79.07
2016-10-28T03:27:32.597Z,78.94
2016-10-28T03:28:32.611Z,79.36
2016-10-28T03:29:32.628Z,79.74
2016-10-28T03:30:32.646Z,79.46
2016-10-28T03:31:32.661Z,79.7
2016-10-28T03:32:32.675Z,79.41
2016-10-28T03:33:32.695Z,79.36
2016-10-28T03:34:32.713Z,79.55
2016-10-28T03:35:32.724Z,79.83
2016-10-28T03:36:32.742Z,79.46
2016-10-28T03:37:32.760Z,79.83
2016-10-28T03:38:32.780Z,79.36
2016-10-28T03:39:32.791Z,79.55
2016-10-28T03:40:32.809Z,79.64
2016-10-28T03:41:32.826Z,79.74
2016-10-28T03:42:32.840Z,79.83
2016-10-28T03:43:32.858Z,78.88
2016-10-28T03:44:32.873Z,79.83
2016-10-28T03:45:32.892Z,79.17
2016-10-28T03:46:32.905Z,79.07
2016-10-28T03:47:32.924Z,79.07
2016-10-28T03:48:32.939Z,79.03
2016-10-28T03:49:32.957Z,79.74
2016-10-28T03:50:32.972Z,79.07
2016-10-28T03:51:32.989Z,79.07
2016-10-28T03:52:33.005Z,79.07
2016-10-28T03:53:33.022Z,79.27
2016-10-28T03:54:33.038Z,79.46
2016-10-28T03:55:33.056Z,79.46
2016-10-28T03:56:33.140Z,79.74
2016-10-28T03:57:33.088Z,79.27
2016-10-28T03:58:33.104Z,78.98
2016-10-28T03:59:33.119Z,79.07
2016-10-28T04:00:33.136Z,79.36
2016-10-28T04:01:33.154Z,79.27
2016-10-28T04:02:33.169Z,79.27
2016-10-28T04:03:33.187Z,78.98
2016-10-28T04:04:33.213Z,79.07
2016-10-28T04:05:33.219Z,79.07
2016-10-28T04:06:33.234Z,78.98
2016-10-28T04:07:33.257Z,78.98
2016-10-28T04:08:33.268Z,78.98
2016-10-28T04:09:33.286Z,78.98
2016-10-28T04:10:33.300Z,79.17
2016-10-28T04:11:33.316Z,79.64
2016-10-28T04:12:33.333Z,79.07
2016-10-28T04:13:33.350Z,79.07
2016-10-28T04:14:33.368Z,79.27
2016-10-28T04:15:33.383Z,79.55
2016-10-28T04:16:33.396Z,78.98
2016-10-28T04:17:33.412Z,79.36
2016-10-28T04:18:33.431Z,79.17
2016-10-28T04:19:33.447Z,79.74
2016-10-28T04:20:33.465Z,79.64
2016-10-28T04:21:33.478Z,79.27
2016-10-28T04:22:33.498Z,79.17
2016-10-28T04:23:33.515Z,79.83
2016-10-28T04:24:33.530Z,79.17
2016-10-28T04:25:33.546Z,79.17
2016-10-28T04:26:33.563Z,79.64
2016-10-28T04:27:33.581Z,79.64
2016-10-28T04:28:33.596Z,79.27
2016-10-28T04:29:33.613Z,79.27
2016-10-28T04:30:33.629Z,79.27
2016-10-28T04:31:33.646Z,79.83
2016-10-28T04:32:33.660Z,79.07
2016-10-28T04:33:33.678Z,79.07
2016-10-28T04:34:33.695Z,79.07
2016-10-28T04:35:33.712Z,79.27
2016-10-28T04:36:33.727Z,79.36
2016-10-28T04:37:33.745Z,79.17
2016-10-28T04:38:33.770Z,79.74
2016-10-28T04:39:33.778Z,79.83
2016-10-28T04:40:33.791Z,79.74
2016-10-28T04:41:34.127Z,79.07
2016-10-28T04:42:33.823Z,79.36
2016-10-28T04:43:33.841Z,79.74
2016-10-28T04:44:33.859Z,79.64
2016-10-28T04:45:33.875Z,79.64
2016-10-28T04:46:33.892Z,79.83
2016-10-28T04:47:33.914Z,79.64
2016-10-28T04:48:33.921Z,79.64
2016-10-28T04:49:33.940Z,79.83
2016-10-28T04:50:33.957Z,79.83
2016-10-28T04:51:33.975Z,79.83
2016-10-28T04:52:33.988Z,79.83
2016-10-28T04:53:34.008Z,79.64
2016-10-28T04:54:34.021Z,79.17
2016-10-28T04:55:34.155Z,79.83
2016-10-28T04:56:34.167Z,79.46
2016-10-28T04:57:34.157Z,79.46
2016-10-28T04:58:34.176Z,79.36
2016-10-28T04:59:34.194Z,79.64
2016-10-28T05:00:34.203Z,80.02
2016-10-28T05:01:34.257Z,79.64
2016-10-28T05:02:34.311Z,79.55
2016-10-28T05:03:34.350Z,79.36
2016-10-28T05:04:34.319Z,79.27
2016-10-28T05:05:34.328Z,79.27
2016-10-28T05:06:34.337Z,79.17
2016-10-28T05:07:34.362Z,79.27
2016-10-28T05:08:34.355Z,79.36
2016-10-28T05:09:34.353Z,79.36
2016-10-28T05:10:34.496Z,78.98
2016-10-28T05:11:34.302Z,79.07
2016-10-28T05:12:34.319Z,79.36
2016-10-28T05:13:34.338Z,79.27
2016-10-28T05:14:34.352Z,79.46
2016-10-28T05:15:34.368Z,78.88
2016-10-28T05:16:34.422Z,79.17
2016-10-28T05:17:34.408Z,79.46
2016-10-28T05:18:34.417Z,79.46
2016-10-28T05:19:34.433Z,79.64
2016-10-28T05:20:34.447Z,79.46
2016-10-28T05:21:34.468Z,79.64
2016-10-28T05:22:34.482Z,79.64
2016-10-28T05:23:34.498Z,79.27
2016-10-28T05:24:34.553Z,79.55
2016-10-28T05:25:34.532Z,79.27
2016-10-28T05:26:34.548Z,79.46
2016-10-28T05:27:34.563Z,79.36
2016-10-28T05:28:34.581Z,79.17
2016-10-28T05:29:34.599Z,79.07
2016-10-28T05:30:34.616Z,79.46
2016-10-28T05:31:34.630Z,78.88
2016-10-28T05:32:34.648Z,79.17
2016-10-28T05:33:34.663Z,79.17
2016-10-28T05:34:34.678Z,79.36
2016-10-28T05:35:34.695Z,79.07
2016-10-28T05:36:34.711Z,79.27
2016-10-28T05:37:34.726Z,79.17
2016-10-28T05:38:34.747Z,79.27
2016-10-28T05:39:34.759Z,79.07
2016-10-28T05:40:34.778Z,78.98
2016-10-28T05:41:34.797Z,79.36
2016-10-28T05:42:34.814Z,78.98
2016-10-28T05:43:34.825Z,79.07
2016-10-28T05:44:34.841Z,79.17
2016-10-28T05:45:34.859Z,79.36
2016-10-28T05:46:34.875Z,79.07
2016-10-28T05:47:35.007Z,79.46
2016-10-28T05:48:35.043Z,79.17
2016-10-28T05:49:34.923Z,79.64
2016-10-28T05:50:35.034Z,79.64
2016-10-28T05:51:34.958Z,79.74
2016-10-28T05:52:35.077Z,79.27
2016-10-28T05:53:35.076Z,79.55
2016-10-28T05:54:35.085Z,79.07
2016-10-28T05:55:35.093Z,79.46
2016-10-28T05:56:35.137Z,79.41
2016-10-28T05:57:35.160Z,79.46
2016-10-28T05:58:35.169Z,79.74
2016-10-28T05:59:35.179Z,79.64
2016-10-28T06:00:35.186Z,79.55
2016-10-28T06:01:35.196Z,79.55
2016-10-28T06:02:35.194Z,80.02
2016-10-28T06:03:35.203Z,79.74
2016-10-28T06:04:35.211Z,79.64
2016-10-28T06:05:35.184Z,79.74
2016-10-28T06:06:35.229Z,79.64
2016-10-28T06:07:35.227Z,79.55
2016-10-28T06:08:35.236Z,79.93
2016-10-28T06:09:35.285Z,79.64
2016-10-28T06:10:35.294Z,79.64
2016-10-28T06:11:35.327Z,79.83
2016-10-28T06:12:35.307Z,79.93
2016-10-28T06:13:35.319Z,79.74
2016-10-28T06:14:35.331Z,79.93
2016-10-28T06:15:35.349Z,79.55
2016-10-28T06:16:35.364Z,79.83
2016-10-28T06:17:35.380Z,79.93
2016-10-28T06:18:35.397Z,79.74
2016-10-28T06:19:35.417Z,79.64
2016-10-28T06:20:35.427Z,79.46
2016-10-28T06:21:35.456Z,79.83
2016-10-28T06:22:35.461Z,79.74
2016-10-28T06:23:35.481Z,79.83
2016-10-28T06:24:35.496Z,79.74
2016-10-28T06:25:35.550Z,79.83
2016-10-28T06:26:35.529Z,79.55
2016-10-28T06:27:35.546Z,79.93
2016-10-28T06:28:35.561Z,79.74
2016-10-28T06:29:35.577Z,79.74
2016-10-28T06:30:35.594Z,79.55
2016-10-28T06:31:35.609Z,79.74
2016-10-28T06:32:35.630Z,79.64
2016-10-28T06:33:35.647Z,79.93
2016-10-28T06:34:35.661Z,79.46
2016-10-28T06:35:35.677Z,79.46
2016-10-28T06:36:35.694Z,79.93
2016-10-28T06:37:35.821Z,79.93
2016-10-28T06:38:35.726Z,79.74
2016-10-28T06:39:35.741Z,79.93
2016-10-28T06:40:35.760Z,79.64
2016-10-28T06:41:35.773Z,79.93
2016-10-28T06:42:35.794Z,79.36
2016-10-28T06:43:35.807Z,79.55
2016-10-28T06:44:35.822Z,79.46
2016-10-28T06:45:35.843Z,79.74
2016-10-28T06:46:35.856Z,79.55
2016-10-28T06:47:35.910Z,79.64
2016-10-28T06:48:35.892Z,79.74
2016-10-28T06:49:35.909Z,79.55
2016-10-28T06:50:35.921Z,79.46
2016-10-28T06:51:35.942Z,79.93
2016-10-28T06:52:35.957Z,79.74
2016-10-28T06:53:35.970Z,79.74
2016-10-28T06:54:35.988Z,79.83
2016-10-28T06:55:36.010Z,79.74
2016-10-28T06:56:36.060Z,79.74
2016-10-28T06:57:36.039Z,79.46
2016-10-28T06:58:36.055Z,79.83
2016-10-28T06:59:36.072Z,79.83
2016-10-28T07:00:36.243Z,79.64
2016-10-28T07:01:36.100Z,79.83
2016-10-28T07:02:36.118Z,79.74
2016-10-28T07:03:36.138Z,79.64
2016-10-28T07:04:36.149Z,79.46
2016-10-28T07:05:36.168Z,79.83
2016-10-28T07:06:36.187Z,79.74
2016-10-28T07:07:36.204Z,79.83
2016-10-28T07:08:36.214Z,79.74
2016-10-28T07:09:36.559Z,79.74
2016-10-28T07:10:36.286Z,79.55
2016-10-28T07:11:36.273Z,79.64
2016-10-28T07:12:36.284Z,79.83
2016-10-28T07:13:36.303Z,79.83
2016-10-28T07:14:36.314Z,79.36
2016-10-28T07:15:36.331Z,79.64
2016-10-28T07:16:36.351Z,79.93
2016-10-28T07:17:36.365Z,79.74
2016-10-28T07:18:36.386Z,79.83
2016-10-28T07:19:36.400Z,79.83
2016-10-28T07:20:36.446Z,79.93
2016-10-28T07:21:36.436Z,80.02
2016-10-28T07:22:36.447Z,79.93
2016-10-28T07:23:36.465Z,79.46
2016-10-28T07:24:36.479Z,79.74
2016-10-28T07:25:36.494Z,79.93
2016-10-28T07:26:36.521Z,79.64
2016-10-28T07:27:36.526Z,79.93
2016-10-28T07:28:36.549Z,79.74
2016-10-28T07:29:36.560Z,79.74
2016-10-28T07:30:36.578Z,80.02
2016-10-28T07:31:36.601Z,79.97
2016-10-28T07:32:36.613Z,79.88
2016-10-28T07:33:36.625Z,79.97
2016-10-28T07:34:36.642Z,79.59
2016-10-28T07:35:36.663Z,79.68
2016-10-28T07:36:36.684Z,79.97
2016-10-28T07:37:36.690Z,80.07
2016-10-28T07:38:36.716Z,79.88
2016-10-28T07:39:36.733Z,79.88
2016-10-28T07:40:36.741Z,79.78
2016-10-28T07:41:36.761Z,79.78
2016-10-28T07:42:36.776Z,79.88
2016-10-28T07:43:36.792Z,79.88
2016-10-28T07:44:36.810Z,79.78
2016-10-28T07:45:36.825Z,79.88
2016-10-28T07:46:36.843Z,79.88
2016-10-28T07:47:37.178Z,80.07
2016-10-28T07:48:36.878Z,79.88
2016-10-28T07:49:36.892Z,79.97
2016-10-28T07:50:36.908Z,79.68
2016-10-28T07:51:36.925Z,79.59
2016-10-28T07:52:36.943Z,79.59
2016-10-28T07:53:36.961Z,79.4
2016-10-28T07:54:36.978Z,79.68
2016-10-28T07:55:37.193Z,79.3
2016-10-28T07:56:37.011Z,79.68
2016-10-28T07:57:37.024Z,79.21
2016-10-28T07:58:37.043Z,79.4
2016-10-28T07:59:37.059Z,79.02
2016-10-28T08:00:37.074Z,79.4
2016-10-28T08:01:37.174Z,79.11
2016-10-28T08:02:37.108Z,79.11
2016-10-28T08:03:37.132Z,79.02
2016-10-28T08:04:37.143Z,79.11
2016-10-28T08:05:37.160Z,79.21
2016-10-28T08:06:37.177Z,79.02
2016-10-28T08:07:37.194Z,79.49
2016-10-28T08:08:37.209Z,79.02
2016-10-28T08:09:37.230Z,78.86
2016-10-28T08:10:37.282Z,79.21
2016-10-28T08:11:37.262Z,79.25
2016-10-28T08:12:37.277Z,78.86
2016-10-28T08:13:37.608Z,79.44
2016-10-28T08:14:37.310Z,79.06
2016-10-28T08:15:37.328Z,78.77
2016-10-28T08:16:37.345Z,78.92
2016-10-28T08:17:37.364Z,78.96
2016-10-28T08:18:37.377Z,78.96
2016-10-28T08:19:37.397Z,79.35
2016-10-28T08:20:37.415Z,78.67
2016-10-28T08:21:37.428Z,78.86
2016-10-28T08:22:37.445Z,78.77
2016-10-28T08:23:37.464Z,78.77
2016-10-28T08:24:37.683Z,79.35
2016-10-28T08:25:37.500Z,78.58
2016-10-28T08:26:37.515Z,78.58
2016-10-28T08:27:37.530Z,78.58
2016-10-28T08:28:37.550Z,78.58
2016-10-28T08:29:37.564Z,78.86
2016-10-28T08:30:37.585Z,78.67
2016-10-28T08:31:37.598Z,78.77
2016-10-28T08:32:37.617Z,78.86
2016-10-28T08:33:37.633Z,78.49
2016-10-28T08:34:37.654Z,78.49
2016-10-28T08:35:37.664Z,78.58
2016-10-28T08:36:37.687Z,78.49
2016-10-28T08:37:37.700Z,78.58
2016-10-28T08:38:37.723Z,78.86
2016-10-28T08:39:37.734Z,78.67
2016-10-28T08:40:37.754Z,78.39
2016-10-28T08:41:37.770Z,78.49
2016-10-28T08:42:37.783Z,78.39
2016-10-28T08:43:37.803Z,78.67
2016-10-28T08:44:37.820Z,78.2
2016-10-28T08:45:37.843Z,78.58
2016-10-28T08:46:37.854Z,78.86
2016-10-28T08:47:37.882Z,78.96
2016-10-28T08:48:37.891Z,78.49
2016-10-28T08:49:37.912Z,78.1
2016-10-28T08:50:37.923Z,78.58
2016-10-28T08:51:37.939Z,78.2
2016-10-28T08:52:37.991Z,78.86
2016-10-28T08:53:38.142Z,78.77
2016-10-28T08:54:37.992Z,78.58
2016-10-28T08:55:38.006Z,78.49
2016-10-28T08:56:38.026Z,78.77
2016-10-28T08:57:38.041Z,78.3
2016-10-28T08:58:38.058Z,78.39
2016-10-28T08:59:38.075Z,78.39
2016-10-28T09:00:38.091Z,78.58
2016-10-28T09:01:38.109Z,78.3
2016-10-28T09:02:38.328Z,78.39
2016-10-28T09:03:38.143Z,78.58
2016-10-28T09:04:38.273Z,78.3
2016-10-28T09:05:38.292Z,78.2
2016-10-28T09:06:38.198Z,78.3
2016-10-28T09:07:38.210Z,78.58
2016-10-28T09:08:38.228Z,78.1
2016-10-28T09:09:38.416Z,78.39
2016-10-28T09:10:38.262Z,78.49
2016-10-28T09:11:38.278Z,78.2
2016-10-28T09:12:38.297Z,78.1
2016-10-28T09:13:38.313Z,78.01
2016-10-28T09:14:38.330Z,78.1
2016-10-28T09:15:38.350Z,77.72
2016-10-28T09:16:38.366Z,78.58
2016-10-28T09:17:38.382Z,77.62
2016-10-28T09:18:38.400Z,77.72
2016-10-28T09:19:38.417Z,78.3
2016-10-28T09:20:38.431Z,77.72
2016-10-28T09:21:38.449Z,78.3
2016-10-28T09:22:38.469Z,77.82
2016-10-28T09:23:38.485Z,78.14
2016-10-28T09:24:38.502Z,77.38
2016-10-28T09:25:38.523Z,77.47
2016-10-28T09:26:38.537Z,77.91
2016-10-28T09:27:38.554Z,77.91
2016-10-28T09:28:38.572Z,77.91
2016-10-28T09:29:38.700Z,77.25
2016-10-28T09:30:38.710Z,77.38
2016-10-28T09:31:39.040Z,78.14
2016-10-28T09:32:38.727Z,77.76
2016-10-28T09:33:38.751Z,77.57
2016-10-28T09:34:38.763Z,77.38
2016-10-28T09:35:38.769Z,78.05
2016-10-28T09:36:38.778Z,77.57
2016-10-28T09:37:38.788Z,77.47
2016-10-28T09:38:38.784Z,77.67
2016-10-28T09:39:38.793Z,77.57
2016-10-28T09:40:38.804Z,77.47
2016-10-28T09:41:38.811Z,77.86
2016-10-28T09:42:38.820Z,77.67
2016-10-28T09:43:38.879Z,77.47
2016-10-28T09:44:38.888Z,77.19
2016-10-28T09:45:38.897Z,77.38
2016-10-28T09:46:38.906Z,77.19
2016-10-28T09:47:38.915Z,77.38
2016-10-28T09:48:38.917Z,77.76
2016-10-28T09:49:39.037Z,77.76
2016-10-28T09:50:39.045Z,77.38
2016-10-28T09:51:39.055Z,77.76
2016-10-28T09:52:39.063Z,77.67
2016-10-28T09:53:39.087Z,77.38
2016-10-28T09:54:39.098Z,77.47
2016-10-28T09:55:39.041Z,77.09
2016-10-28T09:56:39.060Z,77.57
2016-10-28T09:57:39.077Z,77.57
2016-10-28T09:58:39.091Z,77.76
2016-10-28T09:59:39.109Z,77.86
2016-10-28T10:00:39.132Z,78.05
2016-10-28T10:01:39.149Z,77.86
2016-10-28T10:02:39.165Z,77.67
2016-10-28T10:03:39.182Z,77.67
2016-10-28T10:04:39.199Z,77.76
2016-10-28T10:05:39.215Z,77.67
2016-10-28T10:06:39.232Z,77.09
2016-10-28T10:07:39.251Z,76.81
2016-10-28T10:08:39.273Z,76.9
2016-10-28T10:09:39.353Z,77.38
2016-10-28T10:10:39.302Z,77.47
2016-10-28T10:11:39.321Z,77.47
2016-10-28T10:12:39.342Z,78.05
2016-10-28T10:13:39.355Z,77.42
2016-10-28T10:14:39.376Z,76.84
2016-10-28T10:15:39.410Z,76.75
2016-10-28T10:16:39.411Z,77.51
2016-10-28T10:17:39.424Z,76.94
2016-10-28T10:18:39.443Z,77.51
2016-10-28T10:19:39.462Z,77.61
2016-10-28T10:20:39.478Z,76.94
2016-10-28T10:21:39.502Z,77.13
2016-10-28T10:22:39.520Z,77.32
2016-10-28T10:23:39.534Z,77.32
2016-10-28T10:24:39.551Z,77.51
2016-10-28T10:25:39.607Z,76.84
2016-10-28T10:26:39.584Z,77.42
2016-10-28T10:27:39.602Z,77.32
2016-10-28T10:28:39.620Z,77.13
2016-10-28T10:29:39.641Z,77.03
2016-10-28T10:30:39.657Z,77.03
2016-10-28T10:31:39.677Z,76.65
2016-10-28T10:32:39.713Z,77.13
2016-10-28T10:33:39.709Z,76.94
2016-10-28T10:34:39.730Z,76.18
2016-10-28T10:35:39.744Z,76.27
2016-10-28T10:36:39.762Z,76.75
2016-10-28T10:37:39.824Z,77.13
2016-10-28T10:38:39.931Z,76.84
2016-10-28T10:39:39.819Z,77.42
2016-10-28T10:40:39.836Z,76.27
2016-10-28T10:41:39.852Z,76.75
2016-10-28T10:42:39.873Z,76.37
2016-10-28T10:43:39.889Z,76.56
2016-10-28T10:44:39.904Z,76.27
2016-10-28T10:45:39.923Z,76.75
2016-10-28T10:46:39.940Z,77.13
2016-10-28T10:47:40.281Z,76.94
2016-10-28T10:48:39.980Z,77.13
2016-10-28T10:49:39.996Z,76.37
2016-10-28T10:50:40.012Z,76.18
2016-10-28T10:51:40.031Z,77.03
2016-10-28T10:52:40.049Z,76.56
2016-10-28T10:53:40.068Z,76.37
2016-10-28T10:54:40.083Z,76.56
2016-10-28T10:55:40.104Z,76.37
2016-10-28T10:56:40.120Z,76.56
2016-10-28T10:57:40.141Z,76.37
2016-10-28T10:58:40.156Z,76.08
2016-10-28T10:59:40.176Z,76.18
2016-10-28T11:00:40.192Z,76.46
2016-10-28T11:01:40.209Z,76.65
2016-10-28T11:02:40.249Z,76.18
2016-10-28T11:03:40.247Z,76.08
2016-10-28T11:04:40.265Z,76.27
2016-10-28T11:05:40.281Z,75.79
2016-10-28T11:06:40.301Z,76.37
2016-10-28T11:07:40.319Z,76.56
2016-10-28T11:08:40.334Z,76.27
2016-10-28T11:09:40.352Z,76.18
2016-10-28T11:10:40.807Z,75.89
2016-10-28T11:11:40.394Z,75.6
2016-10-28T11:12:40.410Z,75.89
2016-10-28T11:13:40.461Z,76.08
2016-10-28T11:14:40.446Z,76.27
2016-10-28T11:15:40.461Z,76.75
2016-10-28T11:16:40.480Z,76.03
2016-10-28T11:17:40.499Z,76.27
2016-10-28T11:18:40.518Z,75.6
2016-10-28T11:19:40.536Z,75.89
2016-10-28T11:20:40.554Z,75.45
2016-10-28T11:21:40.680Z,75.7
2016-10-28T11:22:40.682Z,75.35
2016-10-28T11:23:40.842Z,75.54
2016-10-28T11:24:40.833Z,75.35
2016-10-28T11:25:40.849Z,75.45
2016-10-28T11:26:41.146Z,75.26
2016-10-28T11:27:40.867Z,75.32
2016-10-28T11:28:40.863Z,75.54
2016-10-28T11:29:40.874Z,75.83
2016-10-28T11:30:40.882Z,75.74
2016-10-28T11:31:40.890Z,75.83
2016-10-28T11:32:40.906Z,75.64
2016-10-28T11:33:40.897Z,75.45
2016-10-28T11:34:40.905Z,75.54
2016-10-28T11:35:40.915Z,75.54
2016-10-28T11:36:40.964Z,75.83
2016-10-28T11:37:40.962Z,75.83
2016-10-28T11:38:40.972Z,75.64
2016-10-28T11:39:40.982Z,75.35
2016-10-28T11:40:40.990Z,75.54
2016-10-28T11:41:40.998Z,75.54
2016-10-28T11:42:41.037Z,75.64
2016-10-28T11:43:41.047Z,75.26
2016-10-28T11:44:41.056Z,75.07
2016-10-28T11:45:41.089Z,75.16
2016-10-28T11:46:41.101Z,75.16
2016-10-28T11:47:41.108Z,75.16
2016-10-28T11:48:41.109Z,74.78
2016-10-28T11:49:41.080Z,74.98
2016-10-28T11:50:41.097Z,74.78
2016-10-28T11:51:41.114Z,75.07
2016-10-28T11:52:41.132Z,75.16
2016-10-28T11:53:41.158Z,75.26
2016-10-28T11:54:41.171Z,75.26
2016-10-28T11:55:41.190Z,74.78
2016-10-28T11:56:41.206Z,74.69
2016-10-28T11:57:41.226Z,74.88
2016-10-28T11:58:41.243Z,74.88
2016-10-28T11:59:41.326Z,74.88
2016-10-28T12:00:41.278Z,74.98
2016-10-28T12:01:41.300Z,74.88
2016-10-28T12:02:41.320Z,75.07
2016-10-28T12:03:41.334Z,74.78
2016-10-28T12:04:41.351Z,74.98
2016-10-28T12:05:41.371Z,74.98
2016-10-28T12:06:41.396Z,74.98
2016-10-28T12:07:41.411Z,74.98
2016-10-28T12:08:41.427Z,74.69
2016-10-28T12:09:41.446Z,74.78
2016-10-28T12:10:41.461Z,75.54
2016-10-28T12:11:41.482Z,75.64
2016-10-28T12:12:41.501Z,75.64
2016-10-28T12:13:41.520Z,75.35
2016-10-28T12:14:41.540Z,75.54
2016-10-28T12:15:41.556Z,76.21
2016-10-28T12:16:41.572Z,76.03
2016-10-28T12:17:41.598Z,76.12
2016-10-28T12:18:41.611Z,75.74
2016-10-28T12:19:41.632Z,76.12
2016-10-28T12:20:41.648Z,76.69
2016-10-28T12:21:41.667Z,76.6
2016-10-28T12:22:41.685Z,76.12
2016-10-28T12:23:41.702Z,76.6
2016-10-28T12:24:41.725Z,76.6
2016-10-28T12:25:41.745Z,76.5
2016-10-28T12:26:41.757Z,76.88
2016-10-28T12:27:41.778Z,77.08
2016-10-28T12:28:41.793Z,76.88
2016-10-28T12:29:41.810Z,77.08
2016-10-28T12:30:41.831Z,77.08
2016-10-28T12:31:41.849Z,76.79
2016-10-28T12:32:41.865Z,77.26
2016-10-28T12:33:41.888Z,77.26
2016-10-28T12:34:41.902Z,76.98
2016-10-28T12:35:42.023Z,77.26
2016-10-28T12:36:42.032Z,76.98
2016-10-28T12:37:42.048Z,77.08
2016-10-28T12:38:41.979Z,77.08
2016-10-28T12:39:41.996Z,77.36
2016-10-28T12:40:42.016Z,77.08
2016-10-28T12:41:42.034Z,77.17
2016-10-28T12:42:42.235Z,76.98
2016-10-28T12:43:42.071Z,76.88
2016-10-28T12:44:42.086Z,77.65
2016-10-28T12:45:42.108Z,76.79
2016-10-28T12:46:42.372Z,77.36
2016-10-28T12:47:42.143Z,77.55
2016-10-28T12:48:42.167Z,77.36
2016-10-28T12:49:42.179Z,77.84
2016-10-28T12:50:42.200Z,77.36
2016-10-28T12:51:42.218Z,77.94
2016-10-28T12:52:42.304Z,77.55
2016-10-28T12:53:42.255Z,77.55
2016-10-28T12:54:42.273Z,77.65